createdAt,value
2023-03-31T00:02:07.357Z,9.63
2023-03-31T00:04:34.266Z,11.00
2023-03-31T00:07:00.967Z,6.77
2023-03-31T00:09:29.884Z,9.00
2023-03-31T00:11:56.771Z,11.40
2023-03-31T00:14:23.465Z,11.47
2023-03-31T00:16:50.531Z,9.63
2023-03-31T00:19:20.595Z,7.87
2023-03-31T00:21:48.725Z,5.73
2023-03-31T00:24:16.377Z,8.27
2023-03-31T00:26:43.881Z,7.37
2023-03-31T00:29:13.269Z,7.20
2023-03-31T00:31:40.040Z,5.63
2023-03-31T00:34:07.713Z,6.10
2023-03-31T00:36:36.781Z,6.77
2023-03-31T00:39:15.030Z,8.20
2023-03-31T00:41:42.307Z,8.87
2023-03-31T00:44:24.362Z,8.27
2023-03-31T00:47:02.219Z,8.27
2023-03-31T00:49:38.018Z,8.23
2023-03-31T00:52:10.700Z,7.80
2023-03-31T00:54:39.308Z,5.47
2023-03-31T00:57:07.959Z,7.63
2023-03-31T00:59:38.729Z,7.17
2023-03-31T01:02:05.702Z,6.43
2023-03-31T01:04:37.256Z,8.20
2023-03-31T01:07:13.653Z,8.77
2023-03-31T01:09:41.948Z,7.53
2023-03-31T01:12:10.991Z,7.40
2023-03-31T01:14:37.834Z,7.87
2023-03-31T01:17:09.618Z,7.33
2023-03-31T01:20:16.033Z,6.93
2023-03-31T01:23:27.067Z,6.17
2023-03-31T01:26:12.564Z,7.43
2023-03-31T01:28:54.415Z,11.07
2023-03-31T01:31:44.017Z,9.60
2023-03-31T01:34:42.870Z,9.23
2023-03-31T01:37:30.657Z,8.67
2023-03-31T01:40:21.514Z,9.87
2023-03-31T01:43:06.331Z,9.27
2023-03-31T01:45:54.698Z,6.77
2023-03-31T01:48:39.215Z,7.77
2023-03-31T01:51:09.671Z,9.47
2023-03-31T01:53:43.611Z,7.87
2023-03-31T01:56:30.392Z,5.40
2023-03-31T01:59:11.828Z,8.43
2023-03-31T02:02:23.386Z,5.80
2023-03-31T02:04:59.146Z,5.87
2023-03-31T02:07:34.242Z,7.63
2023-03-31T02:10:07.173Z,8.73
2023-03-31T02:12:37.823Z,7.97
2023-03-31T02:15:09.568Z,9.07
2023-03-31T02:17:40.426Z,7.97
2023-03-31T02:20:12.329Z,7.13
2023-03-31T02:22:41.591Z,8.20
2023-03-31T02:25:11.710Z,5.57
2023-03-31T02:27:42.242Z,8.73
2023-03-31T02:30:10.944Z,9.10
2023-03-31T02:32:40.492Z,9.43
2023-03-31T02:35:14.950Z,6.97
2023-03-31T02:37:43.359Z,6.73
2023-03-31T02:40:22.888Z,7.57
2023-03-31T02:42:49.828Z,8.63
2023-03-31T02:45:41.739Z,5.73
2023-03-31T02:48:18.800Z,7.83
2023-03-31T02:51:01.785Z,6.17
2023-03-31T02:53:46.846Z,7.73
2023-03-31T02:56:44.232Z,6.73
2023-03-31T02:59:29.316Z,4.63
2023-03-31T03:02:15.308Z,7.40
2023-03-31T03:04:43.219Z,6.87
2023-03-31T03:07:31.332Z,7.73
2023-03-31T03:10:13.970Z,4.80
2023-03-31T03:13:01.989Z,7.00
2023-03-31T03:15:54.605Z,6.87
2023-03-31T03:18:21.288Z,7.00
2023-03-31T03:20:49.312Z,7.67
2023-03-31T03:23:17.050Z,6.00
2023-03-31T03:25:44.314Z,7.23
2023-03-31T03:28:11.074Z,7.83
2023-03-31T03:30:37.850Z,7.93
2023-03-31T03:33:06.410Z,6.37
2023-03-31T03:35:34.038Z,6.63
2023-03-31T03:38:00.811Z,8.00
2023-03-31T03:40:27.451Z,5.63
2023-03-31T03:42:54.114Z,9.80
2023-03-31T03:45:20.768Z,9.30
2023-03-31T03:47:47.387Z,5.17
2023-03-31T03:50:15.996Z,6.50
2023-03-31T03:52:43.305Z,8.27
2023-03-31T03:55:11.925Z,8.97
2023-03-31T03:57:38.587Z,8.13
2023-03-31T04:00:12.343Z,5.63
2023-03-31T04:02:39.926Z,7.00
2023-03-31T04:05:07.038Z,8.27
2023-03-31T04:07:33.720Z,5.00
2023-03-31T04:10:00.744Z,8.33
2023-03-31T04:12:27.406Z,10.10
2023-03-31T04:14:54.105Z,5.33
2023-03-31T04:17:33.062Z,8.17
2023-03-31T04:20:09.365Z,8.33
2023-03-31T04:22:40.903Z,11.10
2023-03-31T04:25:10.596Z,5.33
2023-03-31T04:27:37.256Z,7.60
2023-03-31T04:30:04.181Z,9.40
2023-03-31T04:32:32.890Z,8.53
2023-03-31T04:35:06.594Z,7.50
2023-03-31T04:37:34.853Z,8.43
2023-03-31T04:40:10.765Z,7.50
2023-03-31T04:42:37.436Z,10.47
2023-03-31T04:45:04.546Z,11.53
2023-03-31T04:47:31.292Z,8.37
2023-03-31T04:49:58.019Z,8.37
2023-03-31T04:52:24.744Z,9.37
2023-03-31T04:54:51.442Z,11.60
2023-03-31T04:57:18.167Z,6.73
2023-03-31T04:59:44.883Z,7.30
2023-03-31T05:02:11.757Z,9.13
2023-03-31T05:04:38.840Z,10.47
2023-03-31T05:07:05.522Z,8.80
2023-03-31T05:09:33.511Z,9.13
2023-03-31T05:12:01.488Z,10.30
2023-03-31T05:14:28.151Z,8.87
2023-03-31T05:16:58.009Z,8.07
2023-03-31T05:19:24.916Z,10.20
2023-03-31T05:21:51.595Z,9.23
2023-03-31T05:24:18.309Z,9.60
2023-03-31T05:26:52.552Z,8.97
2023-03-31T05:29:19.581Z,11.27
2023-03-31T05:31:46.399Z,10.40
2023-03-31T05:34:14.206Z,9.63
2023-03-31T05:36:40.991Z,9.00
2023-03-31T05:39:08.714Z,9.90
2023-03-31T05:41:35.605Z,11.80
2023-03-31T05:44:02.326Z,12.70
2023-03-31T05:46:28.992Z,12.50
2023-03-31T05:48:56.557Z,7.40
2023-03-31T05:51:23.336Z,7.87
2023-03-31T05:53:50.596Z,9.30
2023-03-31T05:56:17.465Z,11.63
2023-03-31T05:58:44.131Z,11.00
2023-03-31T06:01:19.755Z,12.40
2023-03-31T06:03:47.162Z,10.93
2023-03-31T06:06:14.966Z,10.80
2023-03-31T06:08:43.028Z,10.63
2023-03-31T06:11:12.435Z,12.17
2023-03-31T06:13:39.900Z,12.17
2023-03-31T06:16:07.271Z,9.50
2023-03-31T06:18:36.460Z,10.13
2023-03-31T06:21:03.774Z,13.80
2023-03-31T06:23:31.266Z,11.20
2023-03-31T06:26:04.422Z,10.93
2023-03-31T06:28:31.235Z,12.97
2023-03-31T06:31:07.104Z,10.40
2023-03-31T06:33:34.861Z,12.87
2023-03-31T06:36:04.316Z,11.63
2023-03-31T06:38:32.063Z,10.53
2023-03-31T06:40:59.822Z,12.30
2023-03-31T06:43:26.961Z,11.70
2023-03-31T06:45:54.941Z,9.53
2023-03-31T06:48:23.114Z,8.83
2023-03-31T06:50:50.252Z,12.50
2023-03-31T06:53:17.020Z,9.63
2023-03-31T06:55:43.698Z,11.33
2023-03-31T06:58:11.877Z,11.60
2023-03-31T07:00:38.555Z,9.73
2023-03-31T07:03:06.707Z,12.40
2023-03-31T07:05:33.395Z,10.07
2023-03-31T07:08:00.715Z,9.80
2023-03-31T07:10:29.637Z,12.73
2023-03-31T07:12:56.453Z,10.70
2023-03-31T07:15:23.379Z,12.80
2023-03-31T07:17:54.025Z,12.00
2023-03-31T07:20:21.184Z,14.17
2023-03-31T07:22:48.760Z,14.43
2023-03-31T07:25:17.369Z,10.80
2023-03-31T07:27:44.379Z,11.07
2023-03-31T07:30:17.374Z,11.80
2023-03-31T07:32:47.429Z,13.07
2023-03-31T07:35:14.115Z,15.03
2023-03-31T07:37:43.538Z,13.83
2023-03-31T07:40:21.678Z,9.10
2023-03-31T07:42:49.402Z,11.07
2023-03-31T07:45:16.906Z,14.87
2023-03-31T07:47:46.506Z,13.60
2023-03-31T07:50:14.824Z,15.97
2023-03-31T07:52:42.994Z,12.23
2023-03-31T07:55:10.901Z,15.60
2023-03-31T07:57:37.967Z,11.93
2023-03-31T08:00:08.304Z,10.17
2023-03-31T08:02:43.927Z,11.80
2023-03-31T08:05:12.668Z,11.10
2023-03-31T08:07:41.691Z,11.30
2023-03-31T08:10:12.602Z,17.90
2023-03-31T08:12:39.276Z,16.23
2023-03-31T08:15:06.594Z,17.80
2023-03-31T08:17:33.380Z,16.47
2023-03-31T08:20:03.722Z,7.93
2023-03-31T08:22:33.091Z,16.17
2023-03-31T08:25:03.871Z,15.57
2023-03-31T08:27:39.460Z,12.23
2023-03-31T08:30:08.673Z,9.37
2023-03-31T08:32:36.074Z,10.93
2023-03-31T08:35:03.788Z,10.13
2023-03-31T08:37:31.560Z,14.50
2023-03-31T08:39:58.644Z,11.13
2023-03-31T08:42:37.291Z,10.60
2023-03-31T08:45:28.799Z,11.00
2023-03-31T08:48:00.945Z,17.77
2023-03-31T08:50:32.019Z,11.87
2023-03-31T08:53:12.913Z,12.63
2023-03-31T08:55:51.535Z,12.03
2023-03-31T08:58:21.164Z,12.37
2023-03-31T09:01:06.902Z,14.13
2023-03-31T09:04:07.173Z,11.90
2023-03-31T09:06:39.787Z,15.40
2023-03-31T09:09:11.380Z,13.23
2023-03-31T09:11:58.115Z,13.57
2023-03-31T09:14:27.914Z,16.73
2023-03-31T09:17:08.275Z,18.50
2023-03-31T09:19:59.913Z,16.20
2023-03-31T09:22:33.018Z,17.10
2023-03-31T09:25:12.463Z,15.63
2023-03-31T09:27:42.599Z,18.03
2023-03-31T09:30:27.243Z,17.53
2023-03-31T09:33:12.303Z,15.80
2023-03-31T09:35:39.146Z,18.40
2023-03-31T09:38:05.894Z,16.73
2023-03-31T09:40:34.216Z,12.40
2023-03-31T09:43:08.285Z,14.80
2023-03-31T09:45:35.783Z,17.30
2023-03-31T09:48:07.652Z,17.43
2023-03-31T09:50:43.333Z,17.17
2023-03-31T09:53:18.112Z,17.67
2023-03-31T09:55:50.655Z,16.30
2023-03-31T09:58:17.659Z,11.13
2023-03-31T10:00:59.160Z,12.97
2023-03-31T10:03:29.489Z,12.03
2023-03-31T10:05:58.953Z,11.93
2023-03-31T10:08:33.921Z,13.27
2023-03-31T10:11:03.840Z,13.53
2023-03-31T10:13:58.628Z,11.70
2023-03-31T10:16:30.294Z,8.43
2023-03-31T10:19:31.808Z,12.33
2023-03-31T10:22:02.817Z,7.33
2023-03-31T10:24:38.572Z,9.97
2023-03-31T10:27:12.500Z,10.80
2023-03-31T10:29:39.225Z,11.40
2023-03-31T10:32:23.066Z,10.77
2023-03-31T10:34:50.468Z,12.20
2023-03-31T10:37:24.073Z,9.50
2023-03-31T10:39:59.860Z,13.97
2023-03-31T10:42:27.961Z,9.77
2023-03-31T10:45:35.601Z,8.03
2023-03-31T10:48:03.985Z,6.97
2023-03-31T10:50:36.178Z,7.43
2023-03-31T10:53:11.928Z,5.00
2023-03-31T10:56:04.021Z,5.63
2023-03-31T10:58:30.644Z,6.17
2023-03-31T11:01:12.315Z,4.73
2023-03-31T11:04:00.545Z,6.73
2023-03-31T11:06:48.053Z,4.67
2023-03-31T11:09:50.479Z,7.03
2023-03-31T11:12:34.287Z,5.73
2023-03-31T11:15:17.729Z,4.83
2023-03-31T11:18:00.491Z,5.83
2023-03-31T11:20:46.021Z,5.60
2023-03-31T11:23:42.956Z,4.33
2023-03-31T11:26:12.563Z,4.70
2023-03-31T11:29:02.329Z,3.80
2023-03-31T11:31:50.081Z,6.23
2023-03-31T11:34:45.834Z,6.07
2023-03-31T11:37:53.705Z,7.07
2023-03-31T11:40:58.621Z,5.33
2023-03-31T11:43:42.782Z,7.30
2023-03-31T11:46:33.238Z,7.00
2023-03-31T11:49:04.572Z,7.50
2023-03-31T11:51:40.746Z,7.47
2023-03-31T11:54:18.172Z,7.67
2023-03-31T11:56:45.617Z,5.63
2023-03-31T11:59:18.091Z,7.43
2023-03-31T12:02:02.924Z,8.80
2023-03-31T12:04:43.180Z,8.83
2023-03-31T12:07:36.401Z,9.03
2023-03-31T12:10:20.758Z,6.87
2023-03-31T12:12:55.346Z,8.30
2023-03-31T12:15:30.397Z,9.13
2023-03-31T12:18:09.767Z,9.33
2023-03-31T12:20:41.196Z,8.33
2023-03-31T12:23:20.392Z,8.30
2023-03-31T12:26:03.953Z,9.10
2023-03-31T12:28:33.634Z,9.70
2023-03-31T12:31:02.622Z,9.70
2023-03-31T12:33:34.445Z,9.03
2023-03-31T12:36:32.213Z,10.03
2023-03-31T12:39:08.757Z,9.33
2023-03-31T12:42:12.731Z,9.73
2023-03-31T12:45:27.099Z,9.10
2023-03-31T12:48:25.712Z,10.20
2023-03-31T12:51:06.303Z,6.60
2023-03-31T12:53:48.158Z,6.27
2023-03-31T12:56:14.847Z,5.37
2023-03-31T12:58:44.855Z,4.67
2023-03-31T13:01:17.780Z,8.23
2023-03-31T13:03:47.743Z,5.20
2023-03-31T13:06:29.859Z,8.73
2023-03-31T13:09:52.861Z,7.70
2023-03-31T13:12:22.602Z,6.70
2023-03-31T13:14:54.287Z,8.63
2023-03-31T13:17:24.131Z,7.60
2023-03-31T13:19:52.237Z,10.33
2023-03-31T13:22:36.184Z,9.50
2023-03-31T13:25:31.302Z,9.77
2023-03-31T13:28:04.328Z,11.37
2023-03-31T13:30:37.157Z,6.67
2023-03-31T13:33:24.271Z,10.53
2023-03-31T13:36:26.692Z,9.80
2023-03-31T13:38:56.124Z,9.60
2023-03-31T13:41:49.009Z,8.90
2023-03-31T13:44:38.390Z,8.07
2023-03-31T13:47:30.130Z,12.47
2023-03-31T13:50:21.483Z,8.70
2023-03-31T13:53:07.944Z,9.47
2023-03-31T13:55:58.194Z,13.03
2023-03-31T13:58:35.500Z,7.33
2023-03-31T14:01:20.773Z,10.23
2023-03-31T14:04:02.759Z,8.30
2023-03-31T14:06:41.217Z,6.93
2023-03-31T14:09:11.945Z,4.83
2023-03-31T14:11:38.638Z,7.00
2023-03-31T14:14:16.297Z,6.50
2023-03-31T14:16:56.925Z,6.73
2023-03-31T14:19:29.627Z,4.20
2023-03-31T14:22:21.555Z,4.50
2023-03-31T14:25:06.515Z,5.50
2023-03-31T14:27:43.599Z,5.13
2023-03-31T14:30:43.079Z,5.20
2023-03-31T14:33:18.876Z,5.30
2023-03-31T14:36:02.012Z,7.63
2023-03-31T14:38:29.996Z,5.93
2023-03-31T14:41:00.831Z,6.17
2023-03-31T14:43:36.817Z,7.13
2023-03-31T14:46:05.909Z,6.73
2023-03-31T14:48:45.928Z,5.80
2023-03-31T14:51:16.061Z,7.07
2023-03-31T14:53:45.522Z,7.13
2023-03-31T14:56:17.019Z,6.33
2023-03-31T14:58:49.158Z,4.97
2023-03-31T15:01:21.188Z,4.67
2023-03-31T15:03:48.096Z,7.23
2023-03-31T15:06:16.378Z,5.10
2023-03-31T15:08:43.402Z,5.70
2023-03-31T15:11:18.618Z,5.50
2023-03-31T15:13:57.215Z,5.90
2023-03-31T15:16:41.543Z,6.27
2023-03-31T15:19:15.528Z,6.63
2023-03-31T15:21:42.865Z,6.27
2023-03-31T15:24:13.012Z,6.17
2023-03-31T15:26:47.379Z,7.30
2023-03-31T15:29:22.119Z,8.77
2023-03-31T15:31:49.444Z,4.70
2023-03-31T15:34:28.256Z,4.30
2023-03-31T15:36:56.664Z,6.10
2023-03-31T15:39:26.421Z,5.00
2023-03-31T15:41:54.080Z,7.47
2023-03-31T15:44:38.329Z,4.47
2023-03-31T15:47:29.365Z,5.07
2023-03-31T15:50:08.014Z,3.10
2023-03-31T15:52:36.741Z,5.43
2023-03-31T15:55:23.436Z,6.93
2023-03-31T15:57:51.329Z,3.77
2023-03-31T16:00:33.435Z,3.97
2023-03-31T16:03:01.874Z,3.07
2023-03-31T16:05:53.651Z,3.50
2023-03-31T16:08:44.799Z,3.37
2023-03-31T16:11:17.947Z,2.23
2023-03-31T16:13:51.592Z,2.73
2023-03-31T16:16:22.224Z,3.63
2023-03-31T16:18:53.306Z,2.80
2023-03-31T16:21:27.346Z,2.47
2023-03-31T16:23:59.234Z,3.27
2023-03-31T16:26:27.954Z,2.63
2023-03-31T16:28:57.441Z,3.37
2023-03-31T16:31:28.659Z,2.37
2023-03-31T16:33:57.111Z,4.13
2023-03-31T16:36:23.844Z,6.43
2023-03-31T16:38:54.763Z,6.43
2023-03-31T16:41:23.422Z,5.10
2023-03-31T16:43:54.707Z,5.53
2023-03-31T16:46:23.045Z,6.83
2023-03-31T16:48:50.249Z,4.00
2023-03-31T16:51:17.803Z,5.23
2023-03-31T16:53:46.104Z,6.77
2023-03-31T16:56:13.779Z,6.67
2023-03-31T16:58:41.480Z,6.53
2023-03-31T17:01:09.907Z,6.07
2023-03-31T17:03:38.379Z,7.20
2023-03-31T17:06:08.225Z,6.87
2023-03-31T17:08:34.936Z,5.80
2023-03-31T17:11:04.122Z,8.20
2023-03-31T17:13:32.539Z,7.40
2023-03-31T17:16:15.285Z,9.40
2023-03-31T17:18:44.597Z,9.23
2023-03-31T17:21:13.773Z,5.33
2023-03-31T17:23:41.418Z,9.03
2023-03-31T17:26:10.590Z,6.50
2023-03-31T17:28:37.697Z,8.10
2023-03-31T17:31:19.196Z,8.40
2023-03-31T17:33:47.344Z,6.77
2023-03-31T17:36:15.565Z,8.87
2023-03-31T17:38:42.756Z,6.83
2023-03-31T17:41:12.857Z,9.30
2023-03-31T17:43:40.081Z,7.83
2023-03-31T17:46:12.602Z,8.40
2023-03-31T17:48:39.934Z,9.73
2023-03-31T17:51:09.417Z,9.20
2023-03-31T17:53:36.776Z,3.93
2023-03-31T17:56:04.594Z,3.90
2023-03-31T17:58:32.275Z,3.50
2023-03-31T18:00:59.376Z,2.43
2023-03-31T18:03:29.349Z,5.17
2023-03-31T18:05:56.664Z,4.63
2023-03-31T18:08:23.326Z,3.03
2023-03-31T18:10:50.553Z,3.63
2023-03-31T18:13:17.412Z,2.60
2023-03-31T18:15:51.461Z,3.20
2023-03-31T18:18:19.149Z,4.43
2023-03-31T18:20:45.994Z,5.10
2023-03-31T18:23:13.074Z,4.40
2023-03-31T18:25:43.910Z,3.57
2023-03-31T18:28:11.011Z,3.60
2023-03-31T18:30:38.256Z,5.17
2023-03-31T18:33:05.761Z,8.23
2023-03-31T18:35:33.251Z,3.20
2023-03-31T18:37:59.982Z,5.00
2023-03-31T18:40:27.305Z,4.20
2023-03-31T18:42:53.945Z,6.03
2023-03-31T18:45:20.623Z,4.00
2023-03-31T18:47:47.582Z,2.77
2023-03-31T18:50:15.215Z,5.63
2023-03-31T18:52:41.940Z,5.67
2023-03-31T18:55:09.137Z,4.13
2023-03-31T18:57:35.774Z,7.07
2023-03-31T19:00:03.059Z,4.60
2023-03-31T19:02:30.006Z,3.50
2023-03-31T19:04:56.647Z,6.10
2023-03-31T19:07:23.256Z,4.37
2023-03-31T19:09:49.914Z,4.33
2023-03-31T19:12:16.605Z,3.43
2023-03-31T19:14:43.978Z,5.67
2023-03-31T19:17:11.643Z,3.07
2023-03-31T19:19:38.290Z,5.47
2023-03-31T19:22:05.169Z,5.70
2023-03-31T19:24:31.799Z,6.03
2023-03-31T19:26:58.526Z,6.47
2023-03-31T19:29:27.364Z,6.70
2023-03-31T19:31:54.093Z,8.50
2023-03-31T19:34:21.091Z,4.93
2023-03-31T19:36:47.900Z,4.13
2023-03-31T19:39:14.604Z,9.40
2023-03-31T19:41:41.262Z,5.73
2023-03-31T19:44:07.881Z,4.47
2023-03-31T19:46:34.564Z,6.20
2023-03-31T19:49:01.391Z,6.57
2023-03-31T19:51:28.166Z,6.57
2023-03-31T19:53:54.912Z,5.87
2023-03-31T19:56:25.067Z,4.90
2023-03-31T19:58:52.457Z,3.60
2023-03-31T20:01:24.833Z,6.80
2023-03-31T20:03:55.896Z,5.30
2023-03-31T20:06:25.527Z,4.03
2023-03-31T20:08:54.628Z,7.13
2023-03-31T20:11:22.225Z,4.50
2023-03-31T20:13:49.095Z,6.87
2023-03-31T20:16:19.040Z,7.80
2023-03-31T20:18:56.602Z,6.40
2023-03-31T20:21:26.269Z,6.87
2023-03-31T20:23:53.383Z,6.80
2023-03-31T20:26:23.789Z,8.50
2023-03-31T20:28:51.829Z,5.87
2023-03-31T20:31:21.060Z,4.90
2023-03-31T20:33:48.364Z,7.53
2023-03-31T20:36:18.114Z,4.53
2023-03-31T20:38:46.858Z,7.07
2023-03-31T20:41:15.542Z,4.80
2023-03-31T20:43:42.240Z,5.63
2023-03-31T20:46:10.259Z,5.20
2023-03-31T20:48:48.535Z,9.07
2023-03-31T20:51:17.426Z,4.33
2023-03-31T20:53:46.652Z,7.27
2023-03-31T20:56:16.750Z,6.03
2023-03-31T20:58:44.400Z,4.70
2023-03-31T21:01:12.973Z,5.77
2023-03-31T21:03:40.779Z,6.37
2023-03-31T21:06:11.662Z,7.17
2023-03-31T21:08:42.932Z,6.33
2023-03-31T21:11:09.940Z,5.53
2023-03-31T21:13:37.160Z,4.73
2023-03-31T21:16:04.837Z,3.63
2023-03-31T21:18:33.804Z,5.60
2023-03-31T21:21:02.750Z,5.33
2023-03-31T21:23:30.578Z,5.57
2023-03-31T21:26:01.686Z,6.93
2023-03-31T21:28:31.455Z,3.80
2023-03-31T21:31:18.735Z,5.63
2023-03-31T21:33:47.423Z,5.03
2023-03-31T21:36:17.729Z,4.10
2023-03-31T21:38:45.543Z,5.23
2023-03-31T21:41:30.583Z,2.30
2023-03-31T21:44:00.853Z,5.93
2023-03-31T21:46:30.561Z,5.90
2023-03-31T21:48:57.604Z,5.93
2023-03-31T21:51:25.031Z,7.93
2023-03-31T21:53:55.392Z,5.17
2023-03-31T21:56:24.418Z,7.53
2023-03-31T21:58:51.734Z,6.70
2023-03-31T22:01:19.248Z,5.37
2023-03-31T22:03:46.236Z,4.63
2023-03-31T22:06:13.160Z,6.27
2023-03-31T22:08:41.221Z,4.67
2023-03-31T22:11:09.873Z,7.07
2023-03-31T22:13:37.214Z,4.53
2023-03-31T22:16:05.392Z,3.23
2023-03-31T22:18:32.191Z,2.47
2023-03-31T22:20:59.135Z,5.97
2023-03-31T22:23:27.445Z,3.37
2023-03-31T22:25:54.516Z,4.00
2023-03-31T22:28:21.245Z,4.73
2023-03-31T22:30:47.966Z,4.23
2023-03-31T22:33:14.661Z,6.67
2023-03-31T22:35:41.462Z,3.30
2023-03-31T22:38:08.734Z,3.53
2023-03-31T22:40:36.238Z,6.50
2023-03-31T22:43:03.121Z,5.77
2023-03-31T22:45:29.904Z,5.53
2023-03-31T22:47:56.960Z,4.53
2023-03-31T22:50:24.300Z,5.77
2023-03-31T22:52:51.038Z,4.67
2023-03-31T22:55:17.868Z,6.27
2023-03-31T22:57:44.885Z,4.90
2023-03-31T23:00:12.677Z,3.37
2023-03-31T23:02:39.788Z,5.70
2023-03-31T23:05:07.219Z,6.20
2023-03-31T23:07:33.893Z,5.17
2023-03-31T23:10:00.600Z,4.00
2023-03-31T23:12:28.187Z,7.70
2023-03-31T23:14:55.296Z,2.60
2023-03-31T23:17:21.979Z,6.33
2023-03-31T23:19:49.263Z,4.60
2023-03-31T23:22:16.058Z,3.47
2023-03-31T23:24:42.742Z,6.10
2023-03-31T23:27:09.516Z,4.30
2023-03-31T23:29:36.615Z,4.67
2023-03-31T23:32:03.624Z,4.17
2023-03-31T23:34:30.484Z,4.30
2023-03-31T23:36:57.279Z,6.07
2023-03-31T23:39:24.080Z,4.50
2023-03-31T23:41:51.114Z,4.10
2023-03-31T23:44:18.050Z,3.37
2023-03-31T23:46:45.034Z,5.93
2023-03-31T23:49:11.883Z,4.70
2023-03-31T23:51:38.658Z,5.80
2023-03-31T23:54:05.305Z,3.60
2023-03-31T23:56:32.046Z,6.03
2023-03-31T23:58:58.976Z,5.90
